^^

..:: Storico WU ::..




Lo storico viene creato da WUnderground con i dati che la stazione Meteomincio invia al loro server. L' aggiornamento viene fatto ogni 5 minuti circa, tuttavia possono esserci intervalli pił ampi a causa di errori, interruzioni di servizio o problemi nell' invio tramite FTP.


Storico stazione MeteoMincio
Giorno Sommario per Marzo 07, 2022 Unità:  Inglese    Metrico   Entrambi
Giorno Settimana Mese Anno
  Max: Min: Media:
Temperatura: 51.8 °F 26.6 °F 39.6 °F
Dew Point: 33.8 °F 21.2 °F 28.2 °F
Umidità: 89% 45% 66%
Velocità vento: 8.7mph 0mph 3.2mph
Raffica: 11.8mph - -
Direzione- - South
Pressione: 30.2 in 30 in -
Precipitazioni: 0 in    
 
 
Tabulato Dati per Marzo 07, 2022
Ora Temperatura Dew Point Pressione Direzione Velocità vento Raffica Umidità Intensità pioggia (oraria) Info solare Situazione
00:04 33.8 °F 26.6 °F 30.1 in Calm     74% 0 in 0.00 W/m2 unknown
00:09 33.8 °F 26.6 °F 30.1 in Calm     73% 0 in 0.00 W/m2 unknown
00:14 33.8 °F 26.6 °F 30.1 in Calm     73% 0 in 0.00 W/m2 unknown
00:19 33.8 °F 26.6 °F 30.1 in Calm     73% 0 in 0.00 W/m2 unknown
00:24 33.8 °F 24.8 °F 30.1 in Calm     73% 0 in 0.00 W/m2 unknown
00:29 33.8 °F 26.6 °F 30.1 in NE 0.6 mph 1.9 mph 74% 0 in 0.00 W/m2 unknown
00:34 33.8 °F 24.8 °F 30.1 in NE 1.2 mph 2.5 mph 73% 0 in 0.00 W/m2 unknown
00:39 33.8 °F 24.8 °F 30.1 in NE 1.2 mph 2.5 mph 73% 0 in 0.00 W/m2 unknown
00:44 33.8 °F 24.8 °F 30.1 in NE 1.2 mph 1.9 mph 74% 0 in 0.00 W/m2 unknown
00:49 32 °F 24.8 °F 30.1 in NE 1.2 mph 2.5 mph 74% 0 in 0.00 W/m2 unknown
00:54 32 °F 24.8 °F 30.1 in NNE 1.2 mph 2.5 mph 75% 0 in 0.00 W/m2 unknown
00:59 32 °F 24.8 °F 30.1 in NNE 1.2 mph 2.5 mph 74% 0 in 0.00 W/m2 unknown
01:04 32 °F 24.8 °F 30.1 in NNE 1.2 mph 2.5 mph 74% 0 in 0.00 W/m2 unknown
01:09 32 °F 24.8 °F 30.1 in NNE 1.2 mph 2.5 mph 75% 0 in 0.00 W/m2 unknown
01:14 32 °F 24.8 °F 30.1 in NNE 1.2 mph 2.5 mph 76% 0 in 0.00 W/m2 unknown
01:19 32 °F 24.8 °F 30.1 in NNE 1.2 mph 2.5 mph 75% 0 in 0.00 W/m2 unknown
01:24 32 °F 24.8 °F 30.1 in NNE 1.2 mph 2.5 mph 75% 0 in 0.00 W/m2 unknown
01:29 32 °F 24.8 °F 30.1 in NNE 1.2 mph 2.5 mph 76% 0 in 0.00 W/m2 unknown
01:34 32 °F 24.8 °F 30.1 in NNE 1.9 mph 2.5 mph 76% 0 in 0.00 W/m2 unknown
01:39 32 °F 26.6 °F 30.1 in NE 1.9 mph 2.5 mph 77% 0 in 0.00 W/m2 unknown
01:44 32 °F 26.6 °F 30.1 in NE 1.9 mph 2.5 mph 77% 0 in 0.00 W/m2 unknown
01:49 32 °F 26.6 °F 30.1 in NE 1.2 mph 2.5 mph 77% 0 in 0.00 W/m2 unknown
01:54 32 °F 26.6 °F 30.1 in NE 1.2 mph 2.5 mph 77% 0 in 0.00 W/m2 unknown
01:59 32 °F 24.8 °F 30.1 in Calm   1.9 mph 77% 0 in 0.00 W/m2 unknown
02:04 32 °F 24.8 °F 30.1 in Calm     77% 0 in 0.00 W/m2 unknown
02:09 32 °F 24.8 °F 30.1 in Calm     77% 0 in 0.00 W/m2 unknown
02:14 32 °F 24.8 °F 30.1 in Calm     77% 0 in 0.00 W/m2 unknown
02:19 32 °F 24.8 °F 30.1 in North 2.5 mph 3.7 mph 77% 0 in 0.00 W/m2 unknown
02:24 32 °F 24.8 °F 30.1 in North 1.9 mph 3.7 mph 78% 0 in 0.00 W/m2 unknown
02:29 32 °F 24.8 °F 30.1 in North 1.9 mph 3.1 mph 78% 0 in 0.00 W/m2 unknown
02:34 32 °F 24.8 °F 30.1 in North 2.5 mph 3.7 mph 78% 0 in 0.00 W/m2 unknown
02:39 32 °F 24.8 °F 30.1 in North 1.9 mph 3.7 mph 78% 0 in 0.00 W/m2 unknown
02:44 32 °F 24.8 °F 30.1 in North 1.9 mph 3.1 mph 78% 0 in 0.00 W/m2 unknown
02:49 30.2 °F 24.8 °F 30.1 in North 1.2 mph 2.5 mph 78% 0 in 0.00 W/m2 unknown
02:54 30.2 °F 24.8 °F 30.1 in North 1.2 mph 2.5 mph 78% 0 in 0.00 W/m2 unknown
02:59 30.2 °F 24.8 °F 30.1 in North 1.9 mph 2.5 mph 78% 0 in 0.00 W/m2 unknown
03:04 30.2 °F 24.8 °F 30.1 in North 2.5 mph 3.7 mph 78% 0 in 0.00 W/m2 unknown
03:09 30.2 °F 24.8 °F 30.1 in North 2.5 mph 3.7 mph 78% 0 in 0.00 W/m2 unknown
03:14 30.2 °F 24.8 °F 30.1 in North 2.5 mph 3.7 mph 79% 0 in 0.00 W/m2 unknown
03:19 30.2 °F 24.8 °F 30.1 in NNE 2.5 mph 3.7 mph 79% 0 in 0.00 W/m2 unknown
03:24 30.2 °F 24.8 °F 30.1 in NNE 2.5 mph 3.7 mph 79% 0 in 0.00 W/m2 unknown
03:29 30.2 °F 24.8 °F 30.1 in North 2.5 mph 3.7 mph 79% 0 in 0.00 W/m2 unknown
03:34 30.2 °F 24.8 °F 30.1 in North 2.5 mph 3.7 mph 79% 0 in 0.00 W/m2 unknown
03:39 30.2 °F 24.8 °F 30.1 in North 1.9 mph 3.1 mph 80% 0 in 0.00 W/m2 unknown
03:44 30.2 °F 24.8 °F 30.1 in North 0.6 mph 1.9 mph 80% 0 in 0.00 W/m2 unknown
03:49 30.2 °F 24.8 °F 30.1 in North 1.2 mph 2.5 mph 80% 0 in 0.00 W/m2 unknown
03:54 30.2 °F 24.8 °F 30.1 in North 1.2 mph 2.5 mph 80% 0 in 0.00 W/m2 unknown
03:59 30.2 °F 24.8 °F 30.1 in North 1.9 mph 3.1 mph 80% 0 in 0.00 W/m2 unknown
04:04 30.2 °F 24.8 °F 30.1 in NNE 1.9 mph 3.7 mph 80% 0 in 0.00 W/m2 unknown
04:09 30.2 °F 24.8 °F 30.1 in NNE 1.9 mph 3.1 mph 80% 0 in 0.00 W/m2 unknown
04:14 30.2 °F 24.8 °F 30.1 in NNE 1.9 mph 2.5 mph 79% 0 in 0.00 W/m2 unknown
04:19 30.2 °F 24.8 °F 30.1 in North 1.9 mph 2.5 mph 79% 0 in 0.00 W/m2 unknown
04:24 30.2 °F 24.8 °F 30.1 in North 1.9 mph 2.5 mph 79% 0 in 0.00 W/m2 unknown
04:29 28.4 °F 23 °F 30.1 in NNW 1.2 mph 2.5 mph 80% 0 in 0.00 W/m2 unknown
04:34 28.4 °F 23 °F 30.1 in NNW 1.9 mph 2.5 mph 81% 0 in 0.00 W/m2 unknown
04:39 28.4 °F 23 °F 30.1 in NNW 1.2 mph 2.5 mph 81% 0 in 0.00 W/m2 unknown
04:44 28.4 °F 23 °F 30.1 in NNW 1.9 mph 2.5 mph 81% 0 in 0.00 W/m2 unknown
04:49 28.4 °F 23 °F 30.1 in NNW 1.9 mph 2.5 mph 81% 0 in 0.00 W/m2 unknown
04:54 28.4 °F 23 °F 30.1 in NW 1.2 mph 2.5 mph 81% 0 in 0.00 W/m2 unknown
04:59 28.4 °F 23 °F 30.1 in NW 1.2 mph 2.5 mph 81% 0 in 0.00 W/m2 unknown
05:04 28.4 °F 23 °F 30.1 in NW 1.9 mph 2.5 mph 81% 0 in 0.00 W/m2 unknown
05:09 28.4 °F 23 °F 30.1 in NW 1.9 mph 2.5 mph 81% 0 in 0.00 W/m2 unknown
05:14 28.4 °F 23 °F 30.1 in NW 1.9 mph 2.5 mph 81% 0 in 0.00 W/m2 unknown
05:19 28.4 °F 23 °F 30.1 in NW 1.9 mph 2.5 mph 81% 0 in 0.00 W/m2 unknown
05:24 28.4 °F 23 °F 30.1 in NW 1.2 mph 2.5 mph 81% 0 in 0.00 W/m2 unknown
05:29 28.4 °F 23 °F 30.1 in WNW 2.5 mph 3.1 mph 81% 0 in 0.00 W/m2 unknown
05:34 28.4 °F 23 °F 30.1 in SW 3.1 mph 3.7 mph 81% 0 in 0.00 W/m2 unknown
05:39 28.4 °F 23 °F 30.1 in SW 1.9 mph 3.7 mph 82% 0 in 0.00 W/m2 unknown
05:44 28.4 °F 23 °F 30.1 in SW 2.5 mph 3.7 mph 81% 0 in 0.00 W/m2 unknown
05:49 28.4 °F 23 °F 30.1 in SW 3.1 mph 3.7 mph 81% 0 in 0.00 W/m2 unknown
05:54 28.4 °F 23 °F 30.1 in SW 1.9 mph 3.7 mph 81% 0 in 0.00 W/m2 unknown
05:59 28.4 °F 23 °F 30.1 in SW 2.5 mph 3.7 mph 81% 0 in 0.00 W/m2 unknown
06:04 28.4 °F 23 °F 30.1 in SW 1.9 mph 3.7 mph 81% 0 in 0.00 W/m2 unknown
06:09 28.4 °F 23 °F 30.1 in WSW 4.3 mph 6.2 mph 81% 0 in 0.00 W/m2 unknown
06:14 26.6 °F 21.2 °F 30.1 in WSW 5.6 mph 6.8 mph 82% 0 in 0.00 W/m2 unknown
06:19 26.6 °F 24.8 °F 30.1 in WSW 5.6 mph 6.8 mph 89% 0 in 0.00 W/m2 unknown
06:24 26.6 °F 21.2 °F 30.1 in WSW 4.3 mph 6.8 mph 82% 0 in 0.00 W/m2 unknown
06:29 26.6 °F 21.2 °F 30.1 in West 3.7 mph 5 mph 83% 0 in 0.00 W/m2 unknown
06:34 26.6 °F 21.2 °F 30.1 in West 2.5 mph 5 mph 83% 0 in 0.00 W/m2 unknown
06:39 26.6 °F 21.2 °F 30.1 in WSW 3.1 mph 3.7 mph 83% 0 in 0.00 W/m2 unknown
06:44 26.6 °F 21.2 °F 30.1 in WSW 2.5 mph 3.7 mph 83% 0 in 0.00 W/m2 unknown
06:49 26.6 °F 21.2 °F 30.1 in West 2.5 mph 3.7 mph 83% 0 in 5.00 W/m2 unknown
06:54 26.6 °F 21.2 °F 30.1 in West 1.9 mph 3.1 mph 83% 0 in 9.00 W/m2 unknown
06:59 26.6 °F 21.2 °F 30.1 in West 2.5 mph 3.7 mph 83% 0 in 12.00 W/m2 unknown
07:04 26.6 °F 21.2 °F 30.1 in West 1.9 mph 3.7 mph 83% 0 in 18.00 W/m2 unknown
07:09 26.6 °F 23 °F 30.1 in West 1.9 mph 3.7 mph 83% 0 in 21.00 W/m2 unknown
07:14 26.6 °F 23 °F 30.1 in West 2.5 mph 3.7 mph 83% 0 in 26.00 W/m2 unknown
07:19 26.6 °F 23 °F 30.1 in West 3.1 mph 3.7 mph 83% 0 in 33.00 W/m2 unknown
07:24 26.6 °F 23 °F 30.1 in WSW 1.9 mph 3.7 mph 83% 0 in 40.00 W/m2 unknown
07:29 28.4 °F 23 °F 30.1 in WSW 2.5 mph 3.7 mph 83% 0 in 49.00 W/m2 unknown
07:34 28.4 °F 23 °F 30.1 in WSW 2.5 mph 3.7 mph 82% 0 in 58.00 W/m2 unknown
07:39 28.4 °F 24.8 °F 30.1 in WSW 2.5 mph 3.7 mph 82% 0 in 67.00 W/m2 unknown
07:44 30.2 °F 24.8 °F 30.1 in SW 1.9 mph 3.7 mph 82% 0 in 77.00 W/m2 unknown
07:49 30.2 °F 24.8 °F 30.1 in WSW 1.9 mph 3.1 mph 80% 0 in 90.00 W/m2 unknown
07:54 32 °F 24.8 °F 30.1 in SW 1.9 mph 2.5 mph 79% 0 in 102.00 W/m2 unknown
07:59 32 °F 24.8 °F 30.1 in SW 1.2 mph 2.5 mph 79% 0 in 118.00 W/m2 unknown
08:04 32 °F 26.6 °F 30.1 in SSW 1.2 mph 1.2 mph 78% 0 in 130.00 W/m2 unknown
08:09 32 °F 26.6 °F 30.1 in SW 1.2 mph 1.9 mph 78% 0 in 142.00 W/m2 unknown
08:14 32 °F 26.6 °F 30.1 in SW 1.9 mph 2.5 mph 76% 0 in 156.00 W/m2 unknown
08:19 33.8 °F 26.6 °F 30.1 in SW 0.6 mph 1.9 mph 76% 0 in 172.00 W/m2 unknown
08:24 33.8 °F 26.6 °F 30.1 in West 1.9 mph 2.5 mph 75% 0 in 188.00 W/m2 unknown
08:29 33.8 °F 26.6 °F 30.1 in West 2.5 mph 3.7 mph 76% 0 in 200.00 W/m2 unknown
08:34 35.6 °F 26.6 °F 30.1 in West 2.5 mph 3.7 mph 74% 0 in 211.00 W/m2 unknown
08:39 35.6 °F 28.4 °F 30.1 in West 1.9 mph 3.7 mph 74% 0 in 225.00 W/m2 unknown
08:44 35.6 °F 28.4 °F 30.1 in West 1.9 mph 3.7 mph 74% 0 in 237.00 W/m2 unknown
08:49 35.6 °F 28.4 °F 30.1 in WNW 2.5 mph 3.7 mph 72% 0 in 250.00 W/m2 unknown
08:54 37.4 °F 28.4 °F 30.1 in WNW 2.5 mph 3.7 mph 72% 0 in 262.00 W/m2 unknown
08:59 37.4 °F 28.4 °F 30.1 in West 1.9 mph 3.7 mph 72% 0 in 276.00 W/m2 unknown
09:04 37.4 °F 30.2 °F 30.1 in WNW 1.9 mph 3.1 mph 71% 0 in 290.00 W/m2 unknown
09:09 39.2 °F 30.2 °F 30.1 in WNW 1.9 mph 3.7 mph 71% 0 in 302.00 W/m2 unknown
09:14 39.2 °F 30.2 °F 30.1 in WNW 1.2 mph 3.1 mph 71% 0 in 315.00 W/m2 unknown
09:19 39.2 °F 32 °F 30.1 in Calm   1.9 mph 72% 0 in 325.00 W/m2 unknown
09:24 41 °F 32 °F 30.1 in Calm     70% 0 in 339.00 W/m2 unknown
09:29 41 °F 30.2 °F 30.1 in WNW 1.9 mph 3.1 mph 68% 0 in 352.00 W/m2 unknown
09:34 41 °F 30.2 °F 30.1 in West 2.5 mph 3.7 mph 67% 0 in 364.00 W/m2 unknown
09:39 41 °F 32 °F 30.1 in WSW 3.1 mph 3.7 mph 68% 0 in 376.00 W/m2 unknown
09:44 41 °F 32 °F 30.1 in WSW 2.5 mph 3.7 mph 68% 0 in 387.00 W/m2 unknown
09:49 42.8 °F 32 °F 30.1 in WNW 1.9 mph 3.7 mph 67% 0 in 399.00 W/m2 unknown
09:54 42.8 °F 32 °F 30.1 in North 2.5 mph 3.7 mph 65% 0 in 410.00 W/m2 unknown
09:59 42.8 °F 32 °F 30.1 in South 2.5 mph 3.7 mph 64% 0 in 418.00 W/m2 unknown
10:04 42.8 °F 32 °F 30.1 in SE 1.9 mph 3.7 mph 64% 0 in 434.00 W/m2 unknown
10:09 42.8 °F 32 °F 30.1 in ESE 5 mph 6.8 mph 64% 0 in 443.00 W/m2 unknown
10:14 44.6 °F 30.2 °F 30.1 in SE 5 mph 6.8 mph 57% 0 in 455.00 W/m2 unknown
10:19 44.6 °F 28.4 °F 30.1 in East 6.2 mph 8.1 mph 56% 0 in 462.00 W/m2 unknown
10:24 44.6 °F 30.2 °F 30.1 in ESE 3.7 mph 8.1 mph 55% 0 in 473.00 W/m2 unknown
10:29 44.6 °F 30.2 °F 30.1 in ESE 4.3 mph 6.2 mph 55% 0 in 485.00 W/m2 unknown
10:34 44.6 °F 28.4 °F 30.1 in SSE 3.1 mph 6.2 mph 54% 0 in 496.00 W/m2 unknown
10:39 44.6 °F 30.2 °F 30.1 in ESE 4.3 mph 5 mph 56% 0 in 506.00 W/m2 unknown
10:44 46.4 °F 30.2 °F 30.1 in ESE 5 mph 6.8 mph 56% 0 in 513.00 W/m2 unknown
10:49 46.4 °F 30.2 °F 30.1 in ENE 3.1 mph 6.8 mph 55% 0 in 522.00 W/m2 unknown
10:54 46.4 °F 28.4 °F 30.1 in NE 3.7 mph 6.2 mph 51% 0 in 531.00 W/m2 unknown
10:59 46.4 °F 30.2 °F 30.1 in NE 5 mph 6.8 mph 51% 0 in 538.00 W/m2 unknown
11:04 46.4 °F 30.2 °F 30.1 in NNE 5 mph 6.8 mph 53% 0 in 545.00 W/m2 unknown
11:09 46.4 °F 30.2 °F 30.1 in ENE 5.6 mph 6.8 mph 52% 0 in 552.00 W/m2 unknown
11:14 48.2 °F 32 °F 30.1 in East 5 mph 6.8 mph 53% 0 in 557.00 W/m2 unknown
11:19 46.4 °F 30.2 °F 30.1 in SSW 5 mph 6.8 mph 53% 0 in 566.00 W/m2 unknown
11:24 46.4 °F 30.2 °F 30.1 in West 5.6 mph 8.1 mph 53% 0 in 570.00 W/m2 unknown
11:29 46.4 °F 30.2 °F 30.1 in WNW 6.2 mph 8.1 mph 52% 0 in 573.00 W/m2 unknown
11:34 48.2 °F 32 °F 30.1 in WSW 6.2 mph 8.1 mph 54% 0 in 582.00 W/m2 unknown
11:39 48.2 °F 32 °F 30.1 in SSW 7.5 mph 10.6 mph 54% 0 in 592.00 W/m2 unknown
11:44 48.2 °F 30.2 °F 30.1 in SSW 6.8 mph 10.6 mph 53% 0 in 592.00 W/m2 unknown
11:49 48.2 °F 32 °F 30.1 in SW 5.6 mph 9.9 mph 53% 0 in 594.00 W/m2 unknown
11:54 48.2 °F 32 °F 30.1 in East 5.6 mph 8.1 mph 53% 0 in 596.00 W/m2 unknown
11:59 48.2 °F 32 °F 30.1 in ESE 3.7 mph 8.1 mph 55% 0 in 599.00 W/m2 unknown
12:04 48.2 °F 32 °F 30.1 in SSW 5 mph 6.8 mph 54% 0 in 605.00 W/m2 unknown
12:09 48.2 °F 32 °F 30.1 in WSW 5.6 mph 9.3 mph 53% 0 in 605.00 W/m2 unknown
12:14 48.2 °F 32 °F 30.1 in SW 5.6 mph 9.3 mph 53% 0 in 605.00 W/m2 unknown
12:19 48.2 °F 32 °F 30.1 in SW 6.2 mph 9.3 mph 51% 0 in 606.00 W/m2 unknown
12:24 48.2 °F 32 °F 30.1 in WNW 3.1 mph 8.7 mph 51% 0 in 610.00 W/m2 unknown
12:29 48.2 °F 30.2 °F 30.1 in West 5.6 mph 8.1 mph 50% 0 in 612.00 W/m2 unknown
12:34 48.2 °F 30.2 °F 30.1 in West 6.8 mph 9.3 mph 50% 0 in 613.00 W/m2 unknown
12:39 48.2 °F 30.2 °F 30.1 in WSW 8.7 mph 10.6 mph 50% 0 in 613.00 W/m2 unknown
12:44 48.2 °F 32 °F 30.1 in NW 3.7 mph 9.9 mph 53% 0 in 612.00 W/m2 unknown
12:49 50 °F 30.2 °F 30.1 in NW 3.7 mph 6.2 mph 49% 0 in 621.00 W/m2 unknown
12:54 50 °F 30.2 °F 30.1 in West 7.5 mph 10.6 mph 48% 0 in 624.00 W/m2 unknown
12:59 50 °F 30.2 °F 30.1 in West 8.1 mph 10.6 mph 49% 0 in 615.00 W/m2 unknown
13:04 48.2 °F 30.2 °F 30.1 in WSW 5.6 mph 9.9 mph 48% 0 in 615.00 W/m2 unknown
13:09 48.2 °F 30.2 °F 30.1 in SW 5 mph 6.8 mph 48% 0 in 606.00 W/m2 unknown
13:14 48.2 °F 30.2 °F 30.1 in SSE 3.1 mph 6.2 mph 48% 0 in 599.00 W/m2 unknown
13:19 50 °F 32 °F 30.1 in WSW 7.5 mph 10.6 mph 49% 0 in 601.00 W/m2 unknown
13:24 50 °F 32 °F 30.1 in WSW 7.5 mph 10.6 mph 49% 0 in 599.00 W/m2 unknown
13:29 50 °F 30.2 °F 30.1 in WSW 5.6 mph 8.7 mph 48% 0 in 594.00 W/m2 unknown
13:34 50 °F 32 °F 30.1 in SSW 6.8 mph 11.2 mph 49% 0 in 584.00 W/m2 unknown
13:39 50 °F 30.2 °F 30.1 in SW 7.5 mph 11.8 mph 49% 0 in 589.00 W/m2 unknown
13:44 50 °F 32 °F 30.1 in WNW 6.8 mph 11.8 mph 49% 0 in 580.00 W/m2 unknown
13:49 50 °F 32 °F 30.1 in West 6.2 mph 9.9 mph 48% 0 in 571.00 W/m2 unknown
13:54 50 °F 30.2 °F 30.1 in SSE 5 mph 8.7 mph 48% 0 in 571.00 W/m2 unknown
13:59 50 °F 32 °F 30.1 in SSW 3.1 mph 6.2 mph 49% 0 in 568.00 W/m2 unknown
14:04 50 °F 32 °F 30.1 in West 5 mph 6.2 mph 50% 0 in 559.00 W/m2 unknown
14:09 50 °F 33.8 °F 30.1 in NW 5 mph 6.2 mph 52% 0 in 559.00 W/m2 unknown
14:14 50 °F 30.2 °F 30.1 in West 6.2 mph 8.1 mph 47% 0 in 548.00 W/m2 unknown
14:19 50 °F 32 °F 30.1 in WNW 6.2 mph 8.1 mph 48% 0 in 545.00 W/m2 unknown
14:24 50 °F 32 °F 30.1 in WSW 6.8 mph 9.3 mph 48% 0 in 527.00 W/m2 unknown
14:29 50 °F 32 °F 30.1 in WSW 6.8 mph 8.7 mph 49% 0 in 520.00 W/m2 unknown
14:34 50 °F 32 °F 30.1 in West 6.2 mph 9.3 mph 48% 0 in 517.00 W/m2 unknown
14:39 50 °F 30.2 °F 30.1 in WSW 6.2 mph 8.7 mph 46% 0 in 503.00 W/m2 unknown
14:44 50 °F 30.2 °F 30.1 in West 5.6 mph 6.8 mph 47% 0 in 496.00 W/m2 unknown
14:49 50 °F 32 °F 30.1 in WSW 5 mph 6.8 mph 48% 0 in 489.00 W/m2 unknown
14:54 50 °F 32 °F 30 in SSE 2.5 mph 3.7 mph 48% 0 in 480.00 W/m2 unknown
14:59 50 °F 32 °F 30 in NE 3.1 mph 3.7 mph 48% 0 in 473.00 W/m2 unknown
15:04 51.8 °F 32 °F 30 in WSW 3.1 mph 6.8 mph 47% 0 in 464.00 W/m2 unknown
15:09 51.8 °F 32 °F 30 in West 8.1 mph 11.8 mph 47% 0 in 454.00 W/m2 unknown
15:14 51.8 °F 30.2 °F 30 in WNW 5.6 mph 6.8 mph 45% 0 in 443.00 W/m2 unknown
15:19 51.8 °F 32 °F 30 in WSW 6.2 mph 8.1 mph 46% 0 in 431.00 W/m2 unknown
15:24 51.8 °F 32 °F 30 in WSW 6.8 mph 10.6 mph 46% 0 in 420.00 W/m2 unknown
15:29 51.8 °F 32 °F 30 in WSW 6.2 mph 9.9 mph 46% 0 in 408.00 W/m2 unknown
15:34 51.8 °F 30.2 °F 30 in SW 3.1 mph 6.8 mph 47% 0 in 390.00 W/m2 unknown
15:39 50 °F 30.2 °F 30 in West 6.2 mph 8.1 mph 46% 0 in 380.00 W/m2 unknown
15:44 50 °F 30.2 °F 30 in West 6.2 mph 8.1 mph 46% 0 in 366.00 W/m2 unknown
15:49 50 °F 32 °F 30 in SW 5.6 mph 6.8 mph 47% 0 in 352.00 W/m2 unknown
15:54 50 °F 32 °F 30 in SSW 3.7 mph 6.8 mph 47% 0 in 343.00 W/m2 unknown
15:59 50 °F 30.2 °F 30 in SW 2.5 mph 5 mph 47% 0 in 330.00 W/m2 unknown
16:04 51.8 °F 32 °F 30 in WSW 6.8 mph 8.1 mph 47% 0 in 320.00 W/m2 unknown
16:09 51.8 °F 32 °F 30 in WNW 6.2 mph 8.1 mph 47% 0 in 306.00 W/m2 unknown
16:14 51.8 °F 30.2 °F 30 in West 5 mph 8.1 mph 46% 0 in 292.00 W/m2 unknown
16:19 51.8 °F 32 °F 30 in WNW 3.7 mph 6.2 mph 47% 0 in 278.00 W/m2 unknown
16:24 51.8 °F 32 °F 30 in SW 4.3 mph 6.2 mph 46% 0 in 262.00 W/m2 unknown
16:29 51.8 °F 30.2 °F 30 in SW 3.7 mph 6.2 mph 46% 0 in 248.00 W/m2 unknown
16:34 51.8 °F 30.2 °F 30 in West 6.2 mph 6.8 mph 46% 0 in 236.00 W/m2 unknown
16:39 50 °F 30.2 °F 30 in WSW 5 mph 6.8 mph 46% 0 in 220.00 W/m2 unknown
16:44 50 °F 30.2 °F 30 in West 5 mph 6.2 mph 46% 0 in 204.00 W/m2 unknown
16:49 50 °F 30.2 °F 30 in SW 3.7 mph 6.2 mph 46% 0 in 192.00 W/m2 unknown
16:54 50 °F 30.2 °F 30 in WSW 3.7 mph 5 mph 46% 0 in 176.00 W/m2 unknown
16:59 50 °F 30.2 °F 30 in WSW 4.3 mph 5 mph 46% 0 in 162.00 W/m2 unknown
17:04 50 °F 30.2 °F 30 in WSW 4.3 mph 5 mph 46% 0 in 146.00 W/m2 unknown
17:09 50 °F 30.2 °F 30 in WSW 3.7 mph 5 mph 47% 0 in 130.00 W/m2 unknown
17:14 50 °F 30.2 °F 30 in WSW 3.7 mph 5 mph 47% 0 in 114.00 W/m2 unknown
17:19 50 °F 30.2 °F 30 in SW 3.1 mph 5 mph 47% 0 in 97.00 W/m2 unknown
17:24 50 °F 30.2 °F 30 in SW 1.9 mph 3.7 mph 47% 0 in 86.00 W/m2 unknown
17:29 50 °F 30.2 °F 30 in WSW 2.5 mph 3.7 mph 47% 0 in 74.00 W/m2 unknown
17:34 50 °F 30.2 °F 30 in WSW 3.1 mph 3.7 mph 48% 0 in 62.00 W/m2 unknown
17:39 50 °F 30.2 °F 30 in SW 1.9 mph 3.7 mph 48% 0 in 49.00 W/m2 unknown
17:44 50 °F 30.2 °F 30 in SW 2.5 mph 3.7 mph 47% 0 in 39.00 W/m2 unknown
17:49 50 °F 30.2 °F 30 in SW 1.2 mph 3.1 mph 48% 0 in 26.00 W/m2 unknown
17:54 48.2 °F 30.2 °F 30 in SW 1.9 mph 2.5 mph 49% 0 in 21.00 W/m2 unknown
17:59 48.2 °F 30.2 °F 30 in SSW 2.5 mph 3.7 mph 50% 0 in 18.00 W/m2 unknown
18:04 48.2 °F 30.2 °F 30 in SSW 1.9 mph 3.7 mph 50% 0 in 12.00 W/m2 unknown
18:09 48.2 °F 30.2 °F 30 in SSW 2.5 mph 3.7 mph 50% 0 in 9.00 W/m2 unknown
18:14 48.2 °F 30.2 °F 30 in SSW 1.9 mph 3.7 mph 51% 0 in 5.00 W/m2 unknown
18:19 48.2 °F 30.2 °F 30 in SSW 1.2 mph 3.1 mph 52% 0 in 0.00 W/m2 unknown
18:24 46.4 °F 30.2 °F 30 in SSW 1.2 mph 1.9 mph 55% 0 in 0.00 W/m2 unknown
18:29 46.4 °F 30.2 °F 30 in SSW 0.6 mph 1.2 mph 55% 0 in 0.00 W/m2 unknown
18:34 46.4 °F 30.2 °F 30 in South 1.2 mph 2.5 mph 56% 0 in 0.00 W/m2 unknown
18:39 44.6 °F 30.2 °F 30 in South 0.6 mph 1.9 mph 57% 0 in 0.00 W/m2 unknown
18:44 44.6 °F 30.2 °F 30 in South 0.6 mph 2.5 mph 58% 0 in 0.00 W/m2 unknown
18:49 44.6 °F 30.2 °F 30.1 in South 1.2 mph 2.5 mph 58% 0 in 0.00 W/m2 unknown
18:54 42.8 °F 30.2 °F 30.1 in SSE 1.2 mph 2.5 mph 58% 0 in 0.00 W/m2 unknown
18:59 42.8 °F 30.2 °F 30.1 in SE 1.9 mph 3.7 mph 59% 0 in 0.00 W/m2 unknown
19:04 42.8 °F 30.2 °F 30.1 in SE 1.2 mph 3.1 mph 58% 0 in 0.00 W/m2 unknown
19:09 42.8 °F 30.2 °F 30.1 in SE 1.2 mph 2.5 mph 59% 0 in 0.00 W/m2 unknown
19:14 42.8 °F 30.2 °F 30 in SE 1.2 mph 2.5 mph 59% 0 in 0.00 W/m2 unknown
19:19 42.8 °F 30.2 °F 30.1 in SE 0.6 mph 1.2 mph 60% 0 in 0.00 W/m2 unknown
19:24 42.8 °F 30.2 °F 30.1 in SE 0.6 mph 1.9 mph 60% 0 in 0.00 W/m2 unknown
19:29 42.8 °F 30.2 °F 30.1 in SSE 1.2 mph 2.5 mph 61% 0 in 0.00 W/m2 unknown
19:34 42.8 °F 30.2 °F 30.1 in SSE 1.2 mph 2.5 mph 62% 0 in 0.00 W/m2 unknown
19:39 42.8 °F 30.2 °F 30.1 in SSE 1.2 mph 2.5 mph 62% 0 in 0.00 W/m2 unknown
19:44 42.8 °F 30.2 °F 30.1 in South 1.9 mph 3.7 mph 61% 0 in 0.00 W/m2 unknown
19:49 42.8 °F 30.2 °F 30.1 in South 1.2 mph 3.1 mph 61% 0 in 0.00 W/m2 unknown
19:54 42.8 °F 30.2 °F 30.1 in SSE 1.2 mph 2.5 mph 63% 0 in 0.00 W/m2 unknown
19:59 41 °F 30.2 °F 30.1 in SSE 1.2 mph 2.5 mph 63% 0 in 0.00 W/m2 unknown
20:04 41 °F 30.2 °F 30.1 in SSE 1.2 mph 2.5 mph 63% 0 in 0.00 W/m2 unknown
20:09 41 °F 30.2 °F 30.1 in SSE 1.2 mph 1.9 mph 64% 0 in 0.00 W/m2 unknown
20:14 41 °F 30.2 °F 30.1 in SSE 1.2 mph 2.5 mph 64% 0 in 0.00 W/m2 unknown
20:19 41 °F 30.2 °F 30.1 in SSE 1.2 mph 2.5 mph 65% 0 in 0.00 W/m2 unknown
20:24 41 °F 30.2 °F 30.1 in SSE 1.2 mph 2.5 mph 65% 0 in 0.00 W/m2 unknown
20:29 41 °F 28.4 °F 30.1 in SSE 1.2 mph 2.5 mph 64% 0 in 0.00 W/m2 unknown
20:34 39.2 °F 28.4 °F 30.1 in SSE 1.9 mph 2.5 mph 65% 0 in 0.00 W/m2 unknown
20:39 39.2 °F 28.4 °F 30.1 in SE 1.9 mph 2.5 mph 65% 0 in 0.00 W/m2 unknown
20:44 39.2 °F 28.4 °F 30.1 in ESE 1.9 mph 2.5 mph 66% 0 in 0.00 W/m2 unknown
20:49 39.2 °F 28.4 °F 30.1 in East 2.5 mph 3.7 mph 66% 0 in 0.00 W/m2 unknown
20:54 39.2 °F 28.4 °F 30.1 in East 2.5 mph 3.7 mph 68% 0 in 0.00 W/m2 unknown
20:59 39.2 °F 30.2 °F 30.1 in East 3.1 mph 3.7 mph 69% 0 in 0.00 W/m2 unknown
21:04 39.2 °F 30.2 °F 30.1 in East 3.1 mph 3.7 mph 71% 0 in 0.00 W/m2 unknown
21:09 39.2 °F 30.2 °F 30.1 in ENE 2.5 mph 3.7 mph 71% 0 in 0.00 W/m2 unknown
21:14 39.2 °F 30.2 °F 30.1 in ENE 2.5 mph 3.7 mph 71% 0 in 0.00 W/m2 unknown
21:19 39.2 °F 30.2 °F 30.1 in ENE 2.5 mph 3.7 mph 72% 0 in 0.00 W/m2 unknown
21:24 39.2 °F 30.2 °F 30.1 in ENE 1.9 mph 3.1 mph 72% 0 in 0.00 W/m2 unknown
21:29 37.4 °F 30.2 °F 30.1 in East 2.5 mph 3.7 mph 72% 0 in 0.00 W/m2 unknown
21:34 37.4 °F 30.2 °F 30.1 in East 3.1 mph 5 mph 72% 0 in 0.00 W/m2 unknown
21:39 39.2 °F 30.2 °F 30.1 in East 3.1 mph 5 mph 72% 0 in 0.00 W/m2 unknown
21:44 39.2 °F 30.2 °F 30.1 in East 3.1 mph 5 mph 71% 0 in 0.00 W/m2 unknown
21:49 39.2 °F 30.2 °F 30.1 in East 3.1 mph 6.2 mph 71% 0 in 0.00 W/m2 unknown
21:54 39.2 °F 30.2 °F 30.1 in East 3.1 mph 6.2 mph 70% 0 in 0.00 W/m2 unknown
21:59 39.2 °F 30.2 °F 30.1 in East 3.1 mph 5 mph 71% 0 in 0.00 W/m2 unknown
22:04 39.2 °F 30.2 °F 30.1 in East 3.1 mph 5 mph 70% 0 in 0.00 W/m2 unknown
22:09 39.2 °F 30.2 °F 30.1 in ENE 2.5 mph 5 mph 71% 0 in 0.00 W/m2 unknown
22:14 39.2 °F 30.2 °F 30.1 in ENE 2.5 mph 3.7 mph 72% 0 in 0.00 W/m2 unknown
22:19 37.4 °F 30.2 °F 30.1 in ENE 1.9 mph 3.7 mph 73% 0 in 0.00 W/m2 unknown
22:24 37.4 °F 30.2 °F 30.1 in ENE 2.5 mph 3.7 mph 74% 0 in 0.00 W/m2 unknown
22:29 37.4 °F 30.2 °F 30.1 in East 2.5 mph 3.7 mph 74% 0 in 0.00 W/m2 unknown
22:34 37.4 °F 30.2 °F 30.1 in ENE 4.3 mph 5 mph 77% 0 in 0.00 W/m2 unknown
22:39 37.4 °F 30.2 °F 30.1 in ENE 6.2 mph 9.3 mph 77% 0 in 0.00 W/m2 unknown
22:44 37.4 °F 30.2 °F 30.1 in East 6.2 mph 8.7 mph 75% 0 in 0.00 W/m2 unknown
22:49 37.4 °F 28.4 °F 30.1 in ENE 5.6 mph 8.1 mph 71% 0 in 0.00 W/m2 unknown
22:54 37.4 °F 28.4 °F 30.1 in East 5 mph 6.8 mph 71% 0 in 0.00 W/m2 unknown
22:59 37.4 °F 28.4 °F 30.1 in ENE 5 mph 6.8 mph 70% 0 in 0.00 W/m2 unknown
23:04 37.4 °F 28.4 °F 30.1 in ENE 3.7 mph 5 mph 71% 0 in 0.00 W/m2 unknown
23:09 37.4 °F 28.4 °F 30.1 in ENE 4.3 mph 6.8 mph 71% 0 in 0.00 W/m2 unknown
23:14 37.4 °F 28.4 °F 30.1 in ENE 4.3 mph 6.8 mph 72% 0 in 0.00 W/m2 unknown
23:19 37.4 °F 28.4 °F 30.1 in ENE 3.7 mph 6.8 mph 72% 0 in 0.00 W/m2 unknown
23:24 35.6 °F 28.4 °F 30.1 in ENE 6.8 mph 9.3 mph 73% 0 in 0.00 W/m2 unknown
23:29 35.6 °F 28.4 °F 30.1 in ENE 6.8 mph 9.3 mph 73% 0 in 0.00 W/m2 unknown
23:34 35.6 °F 28.4 °F 30.2 in ENE 6.8 mph 10.6 mph 73% 0 in 0.00 W/m2 unknown
23:39 35.6 °F 28.4 °F 30.2 in ENE 8.7 mph 11.8 mph 74% 0 in 0.00 W/m2 unknown
23:44 35.6 °F 28.4 °F 30.2 in ENE 8.1 mph 11.8 mph 75% 0 in 0.00 W/m2 unknown
23:49 35.6 °F 28.4 °F 30.2 in ENE 8.1 mph 11.8 mph 76% 0 in 0.00 W/m2 unknown
23:54 35.6 °F 28.4 °F 30.2 in ENE 8.7 mph 11.8 mph 77% 0 in 0.00 W/m2 unknown
23:59 33.8 °F 28.4 °F 30.2 in ENE 8.7 mph 11.8 mph 78% 0 in 0.00 W/m2 unknown
Stazione Meteorologica MeteoMincio Rivalta s/M (MN)
Con i complimenti di Weather Underground - 4 mb



METEO PILLOLE
Il luogo più arido della Terra
Arica (65 m)- Cile
Da 50 anni, in media cadono appena 7 mm di pioggia all'anno.
Share

Non seguire questo link o sarai bannato dal sito!